Mableton, GA

8:57 AM EST on March 04, 2015 (GMT -0500)
Fulton County-Brown | Change Station
CLOSE
Current Station
Airport
Location: Atlanta Fulton,
Elevation: 840 ft
Nearby Weather Stations
Active Advisory: Dense Fog Advisory

Elev 840 ft 33.78 °N, 84.52 °W | Updated 33 minutes ago

Fog
Fog
58 °F
Feels Like 58 °F
N
6
Wind Variable Wind from SW

Today
High -- | Low -- °F
--% Chance of Precip.
Yesterday
High -- | Low -- °F
Precip. -- in
7:03 AM 6:37 PM
Waxing Gibbous, 99% visible
Pressure 30.05 in
Visibility 1.0 miles
Clouds Overcast 200 ft
Dew Point 57 °F
Humidity 97%
Rainfall 0.00 in
Snow Depth Not available.
UV 0 out of 12
Pollen 8.30 out of 12
Air Quality Not available.
Flu Activity Not available.
SPECI KFTY 041324Z 23005KT 1SM BR OVC002 14/14 A3005 RMK AO2 T01440139

More Conditions Fewer Conditions

Pressure 30.05 in
Visibility 1.0 miles
Clouds Overcast 200 ft
Dew Point 57 °F
Humidity 97%
Rainfall 0.00 in
Snow Depth Not available.
UV 0 out of 12
Pollen 8.30 out of 12
Air Quality Not available.
Flu Activity Not available.
SPECI KFTY 041324Z 23005KT 1SM BR OVC002 14/14 A3005 RMK AO2 T01440139

More Conditions Fewer Conditions

10-Day Weather Forecast

Almanac

Astronomy

Mar. 04, 2015 Rise Set
Actual Time
Civil Twilight
Nautical Twilight
Astronomical Twilight
Moon
Length of Visible Light
Length of Day
Tomorrow will be .
, % of the Moon is Illuminated

Today's Extremes

State Highs State Lows

Community

WunderPhotos

Upload Photos

1,802,453 photos uploaded!

WunderBlogs® & News

Nearby

Air Quality

  Air Quality AQ Index Pollutant
Not available.

Snow Depth

Station Depth Elevation

Earthquake Activity

City Distance Mag. Time & Date
Minimum magnitude displayed is 2.5.

Coastal Water Temperatures

Place Temperature

Nearby Weather Stations

Dense Fog Advisory
Statement as of 3:25 AM EST on March 04, 2015

... Dense fog advisory remains in effect until 10 am EST this
morning...

* locations... areas across north and central Georgia mainly north and
east of a line from Blue Ridge to Marietta... Macon and Swainsboro.

* Visibilities... one quarter of a mile or less.

* Timing... through 10 am.

* Impacts... dense fog will create low visibilities through the
morning commute.

Precautionary/preparedness actions...

A dense fog advisory means visibilities will frequently be reduced to
less than one quarter mile. If driving... slow down... use your low-
beam headlights... and leave plenty of distance ahead of you.